createdAt,value
2022-12-25T00:00:40.889Z,5.45
2022-12-25T00:01:43.254Z,4.95
2022-12-25T00:02:46.656Z,5.60
2022-12-25T00:03:49.362Z,3.20
2022-12-25T00:04:52.848Z,4.85
2022-12-25T00:05:58.133Z,4.88
2022-12-25T00:07:01.627Z,4.70
2022-12-25T00:08:04.127Z,6.53
2022-12-25T00:09:07.507Z,3.83
2022-12-25T00:10:10.638Z,5.47
2022-12-25T00:11:17.106Z,8.32
2022-12-25T00:12:22.481Z,49.47
2022-12-25T00:13:25.874Z,62.92
2022-12-25T00:14:28.211Z,41.93
2022-12-25T00:15:31.786Z,15.93
2022-12-25T00:16:34.201Z,11.25
2022-12-25T00:17:37.826Z,13.63
2022-12-25T00:18:40.271Z,8.60
2022-12-25T00:19:44.040Z,15.02
2022-12-25T00:20:46.527Z,7.47
2022-12-25T00:21:50.033Z,6.45
2022-12-25T00:22:52.409Z,5.90
2022-12-25T00:23:56.663Z,6.00
2022-12-25T00:24:59.024Z,4.47
2022-12-25T00:26:06.025Z,7.78
2022-12-25T00:27:08.518Z,7.55
2022-12-25T00:28:13.974Z,7.38
2022-12-25T00:29:16.458Z,4.68
2022-12-25T00:30:19.984Z,4.32
2022-12-25T00:31:22.878Z,4.28
2022-12-25T00:32:26.649Z,5.10
2022-12-25T00:33:29.067Z,6.18
2022-12-25T00:34:32.855Z,3.90
2022-12-25T00:35:35.329Z,4.30
2022-12-25T00:36:41.927Z,5.28
2022-12-25T00:37:44.826Z,6.30
2022-12-25T00:38:48.803Z,4.68
2022-12-25T00:39:51.691Z,6.32
2022-12-25T00:40:55.469Z,4.80
2022-12-25T00:42:16.295Z,6.28
2022-12-25T00:43:21.367Z,6.25
2022-12-25T00:44:23.784Z,7.32
2022-12-25T00:45:27.315Z,5.20
2022-12-25T00:46:29.762Z,5.37
2022-12-25T00:47:33.317Z,6.03
2022-12-25T00:48:36.102Z,6.07
2022-12-25T00:49:39.629Z,6.95
2022-12-25T00:50:43.291Z,5.72
2022-12-25T00:51:46.781Z,6.00
2022-12-25T00:52:49.133Z,5.63
2022-12-25T00:53:52.565Z,5.97
2022-12-25T00:54:54.979Z,7.40
2022-12-25T00:56:00.133Z,5.40
2022-12-25T00:57:02.768Z,6.10
2022-12-25T00:58:06.088Z,4.75
2022-12-25T00:59:10.151Z,6.28
2022-12-25T01:00:15.028Z,7.13
2022-12-25T01:01:17.663Z,6.68
2022-12-25T01:02:27.258Z,8.02
2022-12-25T01:03:29.743Z,6.38
2022-12-25T01:04:33.141Z,6.13
2022-12-25T01:05:35.481Z,7.38
2022-12-25T01:06:39.025Z,5.38
2022-12-25T01:07:41.318Z,5.97
2022-12-25T01:09:05.895Z,5.03
2022-12-25T01:10:31.640Z,6.85
2022-12-25T01:11:33.998Z,5.40
2022-12-25T01:12:39.281Z,7.07
2022-12-25T01:13:42.867Z,5.90
2022-12-25T01:14:47.029Z,4.90
2022-12-25T01:15:52.303Z,5.78
2022-12-25T01:16:55.012Z,6.05
2022-12-25T01:17:59.802Z,5.55
2022-12-25T01:19:04.050Z,5.93
2022-12-25T01:20:08.469Z,4.97
2022-12-25T01:21:12.413Z,4.93
2022-12-25T01:22:16.465Z,6.55
2022-12-25T01:23:18.924Z,6.82
2022-12-25T01:24:22.357Z,4.60
2022-12-25T01:25:24.746Z,5.15
2022-12-25T01:26:28.772Z,7.07
2022-12-25T01:27:32.526Z,4.15
2022-12-25T01:28:36.125Z,4.35
2022-12-25T01:29:38.948Z,4.77
2022-12-25T01:30:49.413Z,4.10
2022-12-25T01:31:51.903Z,3.58
2022-12-25T01:32:55.581Z,4.25
2022-12-25T01:33:58.072Z,4.22
2022-12-25T01:35:01.447Z,4.07
2022-12-25T01:36:04.769Z,3.90
2022-12-25T01:37:08.341Z,4.22
2022-12-25T01:38:11.102Z,4.97
2022-12-25T01:39:15.449Z,5.95
2022-12-25T01:40:17.971Z,5.30
2022-12-25T01:41:26.625Z,4.55
2022-12-25T01:42:29.087Z,6.15
2022-12-25T01:43:34.821Z,5.43
2022-12-25T01:45:16.684Z,5.63
2022-12-25T01:46:21.714Z,5.50
2022-12-25T01:47:24.035Z,6.18
2022-12-25T01:48:32.153Z,6.93
2022-12-25T01:49:38.993Z,5.72
2022-12-25T01:50:45.827Z,4.30
2022-12-25T01:51:52.707Z,4.97
2022-12-25T01:52:57.851Z,6.70
2022-12-25T01:54:05.845Z,5.72
2022-12-25T01:55:11.930Z,4.47
2022-12-25T01:56:15.426Z,6.40
2022-12-25T01:57:21.604Z,5.78
2022-12-25T01:58:25.978Z,5.72
2022-12-25T01:59:29.681Z,5.00
2022-12-25T02:00:33.037Z,6.00
2022-12-25T02:01:37.085Z,6.25
2022-12-25T02:02:42.830Z,5.80
2022-12-25T02:03:45.535Z,7.97
2022-12-25T02:04:53.623Z,7.65
2022-12-25T02:05:56.603Z,8.02
2022-12-25T02:07:00.115Z,6.75
2022-12-25T02:08:08.253Z,5.47
2022-12-25T02:09:12.019Z,4.93
2022-12-25T02:10:14.429Z,5.43
2022-12-25T02:11:31.597Z,5.82
2022-12-25T02:12:36.774Z,5.13
2022-12-25T02:13:39.290Z,6.10
2022-12-25T02:14:42.825Z,8.93
2022-12-25T02:15:53.868Z,5.15
2022-12-25T02:17:06.393Z,5.53
2022-12-25T02:18:17.374Z,6.30
2022-12-25T02:19:36.975Z,5.30
2022-12-25T02:21:24.792Z,5.57
2022-12-25T02:22:39.772Z,7.53
2022-12-25T02:24:27.915Z,5.30
2022-12-25T02:25:43.567Z,4.85
2022-12-25T02:27:08.574Z,4.03
2022-12-25T02:28:20.558Z,5.63
2022-12-25T02:29:30.613Z,5.63
2022-12-25T02:30:38.700Z,6.22
2022-12-25T02:31:51.392Z,5.53
2022-12-25T02:33:18.797Z,7.18
2022-12-25T02:34:27.765Z,5.30
2022-12-25T02:35:31.871Z,5.38
2022-12-25T02:36:41.967Z,7.28
2022-12-25T02:37:51.002Z,5.80
2022-12-25T02:39:17.904Z,6.13
2022-12-25T02:40:24.239Z,6.22
2022-12-25T02:41:30.108Z,6.68
2022-12-25T02:43:00.399Z,6.07
2022-12-25T02:44:28.838Z,5.20
2022-12-25T02:45:53.065Z,4.82
2022-12-25T02:47:14.278Z,5.38
2022-12-25T02:48:37.339Z,6.78
2022-12-25T02:49:59.720Z,5.00
2022-12-25T02:51:23.732Z,4.10
2022-12-25T02:52:48.628Z,5.07
2022-12-25T02:54:13.262Z,4.00
2022-12-25T02:55:38.092Z,5.25
2022-12-25T02:57:02.025Z,4.65
2022-12-25T02:58:32.199Z,5.38
2022-12-25T02:59:57.128Z,4.97
2022-12-25T03:01:21.893Z,3.55
2022-12-25T03:02:45.204Z,3.55
2022-12-25T03:04:10.877Z,5.18
2022-12-25T03:05:38.532Z,3.25
2022-12-25T03:06:47.086Z,3.67
2022-12-25T03:07:50.313Z,4.45
2022-12-25T03:09:16.721Z,4.53
2022-12-25T03:10:39.523Z,4.53
2022-12-25T03:11:42.609Z,3.70
2022-12-25T03:12:49.894Z,3.20
2022-12-25T03:14:17.194Z,3.97
2022-12-25T03:15:40.335Z,3.15
2022-12-25T03:16:53.925Z,3.80
2022-12-25T03:17:59.373Z,2.60
2022-12-25T03:19:23.311Z,2.90
2022-12-25T03:20:44.614Z,3.92
2022-12-25T03:22:05.723Z,3.47
2022-12-25T03:23:27.183Z,5.57
2022-12-25T03:24:48.082Z,3.13
2022-12-25T03:26:08.933Z,3.38
2022-12-25T03:27:13.139Z,4.43
2022-12-25T03:28:15.587Z,4.00
2022-12-25T03:29:32.663Z,3.85
2022-12-25T03:31:00.954Z,5.05
2022-12-25T03:32:14.488Z,4.53
2022-12-25T03:33:44.687Z,3.63
2022-12-25T03:35:13.518Z,4.63
2022-12-25T03:36:25.940Z,4.05
2022-12-25T03:38:12.732Z,4.20
2022-12-25T03:39:42.138Z,4.40
2022-12-25T03:41:15.366Z,5.97
2022-12-25T03:42:42.266Z,3.40
2022-12-25T03:44:22.511Z,3.40
2022-12-25T03:45:50.839Z,4.35
2022-12-25T03:47:19.933Z,3.17
2022-12-25T03:48:41.807Z,3.42
2022-12-25T03:50:08.713Z,3.35
2022-12-25T03:51:32.792Z,3.25
2022-12-25T03:52:55.385Z,2.28
2022-12-25T03:54:21.902Z,2.65
2022-12-25T03:55:44.095Z,3.03
2022-12-25T03:57:05.859Z,4.22
2022-12-25T03:58:36.421Z,3.45
2022-12-25T03:59:53.696Z,2.55
2022-12-25T04:01:14.568Z,3.43
2022-12-25T04:02:36.875Z,2.92
2022-12-25T04:03:58.309Z,3.95
2022-12-25T04:05:19.015Z,3.25
2022-12-25T04:06:39.860Z,5.07
2022-12-25T04:08:00.829Z,4.78
2022-12-25T04:09:21.715Z,3.65
2022-12-25T04:10:42.921Z,4.60
2022-12-25T04:12:03.859Z,4.15
2022-12-25T04:13:24.767Z,4.07
2022-12-25T04:14:45.698Z,5.00
2022-12-25T04:16:06.603Z,4.72
2022-12-25T04:17:27.480Z,6.63
2022-12-25T04:18:49.504Z,4.55
2022-12-25T04:20:10.467Z,6.07
2022-12-25T04:21:31.407Z,5.25
2022-12-25T04:22:52.595Z,5.40
2022-12-25T04:24:13.915Z,5.20
2022-12-25T04:25:34.820Z,6.20
2022-12-25T04:26:55.761Z,5.35
2022-12-25T04:28:20.204Z,5.03
2022-12-25T04:29:40.798Z,4.75
2022-12-25T04:31:01.771Z,6.65
2022-12-25T04:32:22.748Z,5.72
2022-12-25T04:33:43.568Z,6.43
2022-12-25T04:35:06.140Z,4.57
2022-12-25T04:36:13.110Z,3.65
2022-12-25T04:37:15.464Z,6.53
2022-12-25T04:38:21.173Z,4.78
2022-12-25T04:39:23.716Z,3.83
2022-12-25T04:40:26.293Z,4.07
2022-12-25T04:41:30.155Z,5.85
2022-12-25T04:42:32.583Z,5.20
2022-12-25T04:43:36.393Z,4.18
2022-12-25T04:44:39.399Z,4.97
2022-12-25T04:45:42.891Z,4.35
2022-12-25T04:46:45.340Z,3.92
2022-12-25T04:47:48.763Z,3.50
2022-12-25T04:48:51.209Z,3.35
2022-12-25T04:49:56.150Z,2.53
2022-12-25T04:51:10.031Z,5.37
2022-12-25T04:52:13.366Z,3.60
2022-12-25T04:53:16.142Z,3.53
2022-12-25T04:54:19.741Z,4.18
2022-12-25T04:55:22.180Z,2.47
2022-12-25T04:56:25.653Z,2.42
2022-12-25T04:57:28.169Z,3.58
2022-12-25T04:58:33.158Z,2.65
2022-12-25T04:59:35.842Z,2.90
2022-12-25T05:00:39.579Z,2.70
2022-12-25T05:01:41.999Z,2.57
2022-12-25T05:02:45.668Z,3.10
2022-12-25T05:03:48.281Z,3.80
2022-12-25T05:04:52.099Z,2.55
2022-12-25T05:05:56.284Z,5.20
2022-12-25T05:07:00.134Z,2.63
2022-12-25T05:08:02.542Z,3.15
2022-12-25T05:09:06.534Z,5.45
2022-12-25T05:10:10.124Z,4.80
2022-12-25T05:11:16.064Z,4.20
2022-12-25T05:12:18.854Z,4.60
2022-12-25T05:13:22.387Z,3.95
2022-12-25T05:14:25.181Z,5.22
2022-12-25T05:15:28.804Z,5.25
2022-12-25T05:16:31.338Z,3.75
2022-12-25T05:17:35.117Z,5.70
2022-12-25T05:18:37.549Z,7.03
2022-12-25T05:19:41.123Z,4.38
2022-12-25T05:20:44.094Z,5.07
2022-12-25T05:21:49.346Z,4.63
2022-12-25T05:22:51.852Z,3.60
2022-12-25T05:23:55.885Z,3.60
2022-12-25T05:24:58.488Z,4.32
2022-12-25T05:26:05.697Z,6.13
2022-12-25T05:27:08.333Z,6.93
2022-12-25T05:28:12.272Z,3.42
2022-12-25T05:29:15.197Z,4.22
2022-12-25T05:30:18.993Z,4.15
2022-12-25T05:31:21.908Z,4.80
2022-12-25T05:32:25.341Z,3.85
2022-12-25T05:33:27.962Z,2.97
2022-12-25T05:34:31.604Z,4.60
2022-12-25T05:35:33.927Z,4.18
2022-12-25T05:36:37.535Z,3.55
2022-12-25T05:37:41.371Z,4.85
2022-12-25T05:38:45.670Z,3.80
2022-12-25T05:39:48.134Z,3.45
2022-12-25T05:40:53.349Z,5.28
2022-12-25T05:41:55.881Z,4.18
2022-12-25T05:42:59.360Z,4.30
2022-12-25T05:44:01.790Z,3.70
2022-12-25T05:45:05.732Z,4.75
2022-12-25T05:46:09.851Z,3.88
2022-12-25T05:47:13.462Z,3.78
2022-12-25T05:48:15.963Z,2.65
2022-12-25T05:49:19.735Z,3.15
2022-12-25T05:50:22.153Z,3.72
2022-12-25T05:51:26.305Z,3.45
2022-12-25T05:52:31.896Z,3.72
2022-12-25T05:53:37.397Z,3.83
2022-12-25T05:54:39.744Z,4.33
2022-12-25T05:55:45.025Z,3.15
2022-12-25T05:56:47.513Z,3.30
2022-12-25T05:57:50.871Z,5.22
2022-12-25T05:58:53.343Z,4.57
2022-12-25T05:59:57.017Z,2.95
2022-12-25T06:00:59.547Z,3.10
2022-12-25T06:02:03.829Z,2.92
2022-12-25T06:03:06.435Z,3.53
2022-12-25T06:04:12.734Z,2.67
2022-12-25T06:05:15.684Z,3.17
2022-12-25T06:06:19.485Z,2.63
2022-12-25T06:07:22.134Z,1.90
2022-12-25T06:08:25.650Z,2.20
2022-12-25T06:09:29.403Z,3.42
2022-12-25T06:10:32.974Z,2.20
2022-12-25T06:11:35.453Z,3.15
2022-12-25T06:12:39.233Z,3.15
2022-12-25T06:13:42.022Z,2.90
2022-12-25T06:14:45.550Z,4.60
2022-12-25T06:15:47.927Z,5.97
2022-12-25T06:16:53.311Z,4.53
2022-12-25T06:17:56.022Z,2.45
2022-12-25T06:18:59.509Z,4.00
2022-12-25T06:20:01.896Z,4.88
2022-12-25T06:21:09.188Z,4.95
2022-12-25T06:22:11.508Z,2.83
2022-12-25T06:23:15.279Z,5.13
2022-12-25T06:24:21.214Z,4.18
2022-12-25T06:25:26.635Z,4.07
2022-12-25T06:26:29.200Z,5.60
2022-12-25T06:27:32.712Z,3.78
2022-12-25T06:28:35.311Z,4.20
2022-12-25T06:29:39.200Z,6.63
2022-12-25T06:30:41.570Z,4.80
2022-12-25T06:31:45.145Z,3.65
2022-12-25T06:32:47.685Z,3.97
2022-12-25T06:33:51.576Z,5.90
2022-12-25T06:34:53.885Z,4.38
2022-12-25T06:35:57.238Z,4.55
2022-12-25T06:36:59.649Z,5.27
2022-12-25T06:38:03.178Z,5.32
2022-12-25T06:39:06.618Z,4.00
2022-12-25T06:40:09.792Z,4.45
2022-12-25T06:41:16.211Z,4.15
2022-12-25T06:42:21.499Z,3.40
2022-12-25T06:43:25.115Z,3.17
2022-12-25T06:44:27.943Z,3.20
2022-12-25T06:45:31.360Z,4.88
2022-12-25T06:46:33.741Z,2.65
2022-12-25T06:47:37.946Z,3.53
2022-12-25T06:48:41.745Z,4.60
2022-12-25T06:49:45.075Z,3.38
2022-12-25T06:50:47.502Z,4.10
2022-12-25T06:51:51.241Z,3.38
2022-12-25T06:52:53.836Z,3.08
2022-12-25T06:53:58.778Z,4.40
2022-12-25T06:55:01.147Z,2.63
2022-12-25T06:56:05.198Z,2.80
2022-12-25T06:57:10.127Z,3.17
2022-12-25T06:58:12.820Z,3.50
2022-12-25T06:59:16.522Z,3.03
2022-12-25T07:00:19.399Z,5.25
2022-12-25T07:01:25.362Z,3.47
2022-12-25T07:02:28.348Z,6.10
2022-12-25T07:03:32.178Z,3.92
2022-12-25T07:04:39.173Z,2.80
2022-12-25T07:05:42.691Z,4.63
2022-12-25T07:06:45.169Z,4.85
2022-12-25T07:07:48.587Z,3.00
2022-12-25T07:08:51.012Z,4.90
2022-12-25T07:09:54.542Z,7.47
2022-12-25T07:10:57.018Z,4.32
2022-12-25T07:12:05.605Z,3.40
2022-12-25T07:13:09.718Z,5.55
2022-12-25T07:14:23.377Z,4.68
2022-12-25T07:15:26.707Z,3.45
2022-12-25T07:16:30.288Z,3.50
2022-12-25T07:17:35.186Z,4.72
2022-12-25T07:18:38.972Z,4.68
2022-12-25T07:19:45.173Z,3.17
2022-12-25T07:20:49.068Z,5.07
2022-12-25T07:21:52.599Z,4.22
2022-12-25T07:22:55.007Z,2.97
2022-12-25T07:23:58.462Z,3.58
2022-12-25T07:25:00.989Z,3.65
2022-12-25T07:26:05.095Z,3.67
2022-12-25T07:27:08.572Z,2.88
2022-12-25T07:28:13.385Z,5.13
2022-12-25T07:29:15.862Z,3.35
2022-12-25T07:30:19.660Z,3.30
2022-12-25T07:31:22.062Z,3.22
2022-12-25T07:32:25.498Z,3.05
2022-12-25T07:33:28.014Z,2.22
2022-12-25T07:34:31.537Z,3.08
2022-12-25T07:35:33.938Z,3.28
2022-12-25T07:36:37.383Z,4.03
2022-12-25T07:37:39.740Z,2.28
2022-12-25T07:38:43.576Z,3.30
2022-12-25T07:39:45.933Z,3.33
2022-12-25T07:40:49.355Z,2.77
2022-12-25T07:41:52.854Z,4.05
2022-12-25T07:42:55.578Z,4.22
2022-12-25T07:44:00.672Z,2.83
2022-12-25T07:45:03.228Z,3.65
2022-12-25T07:46:07.561Z,2.95
2022-12-25T07:47:10.132Z,4.03
2022-12-25T07:48:16.804Z,2.97
2022-12-25T07:49:19.394Z,2.45
2022-12-25T07:50:22.770Z,4.45
2022-12-25T07:51:25.424Z,2.93
2022-12-25T07:52:29.071Z,3.83
2022-12-25T07:53:32.481Z,3.65
2022-12-25T07:54:36.254Z,9.55
2022-12-25T07:55:38.616Z,4.25
2022-12-25T07:56:42.005Z,5.40
2022-12-25T07:57:44.288Z,3.08
2022-12-25T07:58:48.457Z,5.45
2022-12-25T07:59:52.194Z,2.92
2022-12-25T08:00:56.092Z,5.00
2022-12-25T08:01:59.658Z,4.20
2022-12-25T08:03:02.358Z,5.60
2022-12-25T08:04:06.035Z,4.03
2022-12-25T08:05:08.983Z,4.18
2022-12-25T08:06:12.965Z,3.95
2022-12-25T08:07:15.243Z,6.38
2022-12-25T08:08:18.638Z,3.17
2022-12-25T08:09:21.147Z,3.75
2022-12-25T08:10:24.499Z,4.25
2022-12-25T08:11:27.012Z,7.68
2022-12-25T08:12:30.850Z,5.73
2022-12-25T08:13:34.467Z,7.00
2022-12-25T08:14:37.982Z,4.00
2022-12-25T08:15:42.550Z,3.25
2022-12-25T08:16:47.160Z,8.05
2022-12-25T08:17:49.632Z,5.18
2022-12-25T08:18:53.076Z,3.63
2022-12-25T08:19:55.492Z,3.70
2022-12-25T08:21:03.969Z,3.30
2022-12-25T08:22:06.791Z,2.72
2022-12-25T08:23:10.625Z,4.23
2022-12-25T08:24:14.131Z,3.63
2022-12-25T08:25:16.809Z,4.90
2022-12-25T08:26:23.213Z,5.47
2022-12-25T08:27:25.684Z,2.83
2022-12-25T08:28:30.817Z,6.13
2022-12-25T08:29:34.141Z,5.68
2022-12-25T08:30:38.765Z,4.88
2022-12-25T08:31:46.643Z,2.95
2022-12-25T08:32:49.714Z,5.10
2022-12-25T08:33:54.968Z,2.63
2022-12-25T08:34:57.434Z,10.57
2022-12-25T08:36:03.828Z,4.28
2022-12-25T08:37:07.274Z,3.63
2022-12-25T08:38:09.825Z,2.92
2022-12-25T08:39:13.494Z,3.13
2022-12-25T08:40:16.146Z,3.85
2022-12-25T08:41:19.989Z,3.20
2022-12-25T08:42:22.586Z,4.32
2022-12-25T08:43:26.236Z,2.63
2022-12-25T08:44:30.001Z,3.30
2022-12-25T08:45:35.390Z,5.20
2022-12-25T08:46:39.954Z,3.40
2022-12-25T08:47:43.898Z,4.25
2022-12-25T08:48:48.364Z,3.05
2022-12-25T08:49:51.729Z,2.22
2022-12-25T08:50:54.478Z,3.63
2022-12-25T08:51:58.169Z,8.30
2022-12-25T08:53:00.897Z,4.88
2022-12-25T08:54:04.818Z,15.05
2022-12-25T08:55:08.521Z,4.50
2022-12-25T08:56:12.694Z,4.57
2022-12-25T08:57:14.996Z,4.20
2022-12-25T08:58:18.308Z,4.03
2022-12-25T08:59:21.810Z,4.60
2022-12-25T09:00:24.214Z,3.83
2022-12-25T09:01:28.150Z,3.22
2022-12-25T09:02:30.811Z,5.20
2022-12-25T09:03:36.214Z,3.45
2022-12-25T09:04:38.767Z,4.82
2022-12-25T09:05:42.285Z,4.90
2022-12-25T09:06:44.625Z,4.13
2022-12-25T09:07:47.898Z,4.03
2022-12-25T09:08:50.455Z,3.30
2022-12-25T09:09:54.054Z,4.55
2022-12-25T09:10:57.164Z,4.57
2022-12-25T09:12:00.526Z,5.15
2022-12-25T09:13:03.339Z,5.53
2022-12-25T09:14:06.866Z,7.32
2022-12-25T09:15:10.617Z,3.97
2022-12-25T09:16:16.740Z,4.70
2022-12-25T09:17:20.213Z,3.20
2022-12-25T09:18:22.518Z,3.90
2022-12-25T09:19:27.511Z,4.03
2022-12-25T09:20:29.842Z,4.30
2022-12-25T09:21:33.453Z,3.60
2022-12-25T09:22:35.871Z,5.20
2022-12-25T09:23:39.632Z,2.53
2022-12-25T09:24:43.838Z,3.30
2022-12-25T09:25:47.200Z,5.07
2022-12-25T09:26:49.605Z,4.63
2022-12-25T09:27:53.122Z,4.78
2022-12-25T09:28:55.623Z,5.10
2022-12-25T09:29:59.171Z,2.67
2022-12-25T09:31:01.751Z,3.00
2022-12-25T09:32:05.434Z,3.28
2022-12-25T09:33:07.973Z,3.55
2022-12-25T09:34:17.065Z,3.33
2022-12-25T09:35:22.631Z,2.90
2022-12-25T09:36:26.807Z,3.53
2022-12-25T09:37:31.129Z,4.90
2022-12-25T09:38:34.648Z,3.75
2022-12-25T09:39:45.833Z,5.13
2022-12-25T09:40:49.979Z,6.40
2022-12-25T09:41:59.565Z,4.88
2022-12-25T09:43:04.109Z,3.55
2022-12-25T09:44:11.759Z,7.43
2022-12-25T09:45:18.247Z,3.80
2022-12-25T09:46:30.168Z,5.63
2022-12-25T09:47:40.358Z,6.25
2022-12-25T09:48:49.806Z,3.63
2022-12-25T09:49:58.700Z,3.08
2022-12-25T09:51:09.148Z,6.72
2022-12-25T09:52:16.310Z,4.13
2022-12-25T09:53:24.340Z,5.00
2022-12-25T09:54:40.729Z,3.55
2022-12-25T09:55:48.977Z,8.63
2022-12-25T09:56:52.378Z,4.75
2022-12-25T09:57:57.054Z,3.97
2022-12-25T09:59:00.534Z,4.05
2022-12-25T10:00:03.159Z,2.90
2022-12-25T10:01:17.815Z,2.70
2022-12-25T10:02:37.048Z,5.70
2022-12-25T10:03:57.633Z,3.67
2022-12-25T10:05:11.003Z,6.05
2022-12-25T10:06:22.189Z,3.83
2022-12-25T10:07:37.774Z,4.60
2022-12-25T10:08:56.387Z,4.28
2022-12-25T10:10:16.217Z,4.22
2022-12-25T10:11:31.155Z,3.97
2022-12-25T10:12:46.927Z,2.97
2022-12-25T10:14:03.157Z,3.30
2022-12-25T10:15:21.041Z,4.57
2022-12-25T10:16:32.279Z,5.82
2022-12-25T10:17:46.635Z,4.05
2022-12-25T10:19:04.440Z,5.35
2022-12-25T10:20:19.415Z,4.22
2022-12-25T10:21:24.534Z,4.90
2022-12-25T10:22:33.234Z,3.85
2022-12-25T10:23:39.638Z,5.22
2022-12-25T10:24:46.781Z,5.23
2022-12-25T10:25:50.037Z,5.93
2022-12-25T10:26:55.499Z,4.80
2022-12-25T10:28:01.217Z,4.13
2022-12-25T10:29:13.874Z,4.22
2022-12-25T10:30:18.284Z,3.83
2022-12-25T10:31:24.059Z,4.45
2022-12-25T10:32:26.557Z,3.20
2022-12-25T10:33:30.276Z,3.45
2022-12-25T10:34:35.144Z,4.60
2022-12-25T10:35:38.965Z,4.10
2022-12-25T10:36:46.272Z,3.20
2022-12-25T10:37:54.079Z,3.13
2022-12-25T10:38:57.904Z,4.10
2022-12-25T10:40:00.339Z,5.20
2022-12-25T10:41:20.324Z,3.85
2022-12-25T10:42:34.143Z,7.00
2022-12-25T10:43:43.044Z,4.82
2022-12-25T10:44:56.330Z,6.50
2022-12-25T10:46:00.614Z,6.47
2022-12-25T10:47:04.738Z,5.27
2022-12-25T10:48:09.188Z,6.30
2022-12-25T10:49:17.865Z,3.85
2022-12-25T10:50:25.238Z,4.38
2022-12-25T10:51:33.943Z,4.15
2022-12-25T10:52:52.123Z,3.92
2022-12-25T10:53:55.493Z,5.00
2022-12-25T10:54:57.756Z,4.25
2022-12-25T10:56:03.537Z,4.50
2022-12-25T10:57:16.327Z,3.85
2022-12-25T10:58:21.653Z,5.37
2022-12-25T10:59:24.583Z,5.07
2022-12-25T11:00:30.723Z,5.18
2022-12-25T11:01:33.636Z,4.13
2022-12-25T11:02:41.556Z,3.50
2022-12-25T11:03:47.000Z,3.13
2022-12-25T11:04:52.224Z,3.15
2022-12-25T11:05:55.042Z,5.57
2022-12-25T11:07:02.708Z,5.43
2022-12-25T11:08:21.094Z,5.30
2022-12-25T11:09:24.584Z,5.97
2022-12-25T11:10:31.588Z,4.60
2022-12-25T11:11:34.130Z,3.60
2022-12-25T11:12:43.160Z,4.95
2022-12-25T11:13:50.735Z,5.53
2022-12-25T11:14:58.829Z,4.22
2022-12-25T11:16:07.471Z,7.65
2022-12-25T11:17:11.261Z,6.25
2022-12-25T11:18:22.790Z,4.18
2022-12-25T11:19:29.807Z,4.97
2022-12-25T11:20:33.355Z,6.47
2022-12-25T11:21:38.727Z,5.75
2022-12-25T11:22:45.675Z,4.68
2022-12-25T11:23:52.126Z,4.72
2022-12-25T11:24:55.484Z,5.90
2022-12-25T11:26:00.226Z,4.82
2022-12-25T11:27:07.187Z,4.57
2022-12-25T11:28:13.478Z,6.38
2022-12-25T11:29:25.821Z,7.15
2022-12-25T11:30:31.300Z,7.03
2022-12-25T11:31:39.731Z,3.90
2022-12-25T11:32:47.885Z,5.68
2022-12-25T11:33:55.469Z,4.85
2022-12-25T11:34:59.978Z,5.90
2022-12-25T11:36:13.213Z,7.60
2022-12-25T11:37:21.667Z,8.40
2022-12-25T11:38:24.872Z,7.93
2022-12-25T11:39:32.982Z,7.72
2022-12-25T11:40:40.984Z,7.13
2022-12-25T11:41:45.324Z,7.93
2022-12-25T11:42:53.298Z,10.17
2022-12-25T11:44:00.215Z,5.88
2022-12-25T11:45:08.495Z,9.23
2022-12-25T11:46:17.274Z,7.22
2022-12-25T11:47:26.843Z,9.02
2022-12-25T11:48:34.343Z,6.45
2022-12-25T11:49:49.636Z,7.35
2022-12-25T11:50:58.922Z,9.18
2022-12-25T11:52:01.539Z,8.02
2022-12-25T11:53:08.028Z,7.75
2022-12-25T11:54:19.261Z,7.37
2022-12-25T11:55:32.441Z,8.20
2022-12-25T11:56:35.038Z,6.95
2022-12-25T11:57:40.680Z,9.00
2022-12-25T11:58:47.081Z,6.85
2022-12-25T11:59:57.903Z,9.52
2022-12-25T12:01:04.796Z,7.15
2022-12-25T12:02:25.363Z,9.35
2022-12-25T12:03:31.656Z,6.75
2022-12-25T12:04:42.934Z,9.02
2022-12-25T12:05:48.528Z,7.90
2022-12-25T12:06:56.824Z,9.25
2022-12-25T12:08:01.845Z,7.85
2022-12-25T12:09:19.614Z,8.65
2022-12-25T12:10:28.433Z,8.68
2022-12-25T12:11:38.284Z,8.95
2022-12-25T12:12:52.622Z,6.60
2022-12-25T12:14:07.245Z,9.60
2022-12-25T12:15:18.976Z,8.90
2022-12-25T12:16:22.556Z,9.60
2022-12-25T12:17:24.969Z,10.97
2022-12-25T12:18:33.013Z,8.65
2022-12-25T12:19:35.385Z,9.18
2022-12-25T12:20:39.208Z,10.80
2022-12-25T12:21:44.261Z,10.25
2022-12-25T12:22:51.919Z,9.85
2022-12-25T12:24:02.655Z,8.93
2022-12-25T12:25:07.475Z,7.90
2022-12-25T12:26:20.273Z,10.98
2022-12-25T12:27:27.629Z,9.52
2022-12-25T12:28:40.880Z,10.10
2022-12-25T12:29:45.177Z,7.90
2022-12-25T12:30:59.642Z,8.63
2022-12-25T12:32:05.614Z,9.38
2022-12-25T12:33:08.450Z,10.30
2022-12-25T12:34:23.098Z,9.80
2022-12-25T12:35:29.097Z,8.63
2022-12-25T12:36:36.846Z,9.40
2022-12-25T12:37:41.570Z,10.27
2022-12-25T12:38:46.214Z,9.35
2022-12-25T12:39:53.638Z,8.03
2022-12-25T12:41:00.070Z,9.32
2022-12-25T12:42:13.588Z,7.32
2022-12-25T12:43:32.097Z,13.00
2022-12-25T12:44:34.920Z,13.40
2022-12-25T12:45:39.706Z,14.10
2022-12-25T12:46:52.476Z,10.68
2022-12-25T12:47:56.093Z,10.32
2022-12-25T12:49:10.790Z,7.03
2022-12-25T12:50:30.474Z,9.95
2022-12-25T12:51:36.847Z,8.07
2022-12-25T12:52:41.316Z,10.45
2022-12-25T12:53:44.632Z,7.47
2022-12-25T12:55:00.568Z,8.82
2022-12-25T12:56:17.572Z,9.93
2022-12-25T12:57:29.527Z,10.55
2022-12-25T12:58:34.019Z,9.52
2022-12-25T12:59:43.536Z,8.30
2022-12-25T13:00:52.598Z,8.38
2022-12-25T13:02:07.150Z,9.65
2022-12-25T13:03:32.068Z,11.20
2022-12-25T13:05:02.335Z,9.15
2022-12-25T13:06:13.253Z,7.55
2022-12-25T13:07:33.355Z,9.82
2022-12-25T13:08:50.937Z,9.68
2022-12-25T13:10:03.905Z,6.65
2022-12-25T13:11:19.813Z,7.63
2022-12-25T13:12:25.344Z,7.70
2022-12-25T13:13:37.076Z,8.13
2022-12-25T13:14:45.176Z,7.85
2022-12-25T13:15:51.396Z,8.77
2022-12-25T13:16:55.062Z,9.70
2022-12-25T13:18:03.209Z,10.48
2022-12-25T13:19:07.774Z,7.47
2022-12-25T13:20:21.402Z,7.97
2022-12-25T13:21:25.480Z,8.27
2022-12-25T13:22:33.791Z,9.90
2022-12-25T13:23:37.978Z,6.05
2022-12-25T13:24:41.470Z,12.20
2022-12-25T13:25:51.497Z,9.52
2022-12-25T13:26:55.536Z,11.13
2022-12-25T13:27:59.749Z,10.15
2022-12-25T13:29:07.956Z,9.93
2022-12-25T13:30:20.249Z,8.70
2022-12-25T13:31:24.866Z,5.75
2022-12-25T13:32:31.896Z,6.68
2022-12-25T13:33:34.853Z,9.27
2022-12-25T13:34:39.904Z,8.85
2022-12-25T13:35:43.798Z,7.57
2022-12-25T13:36:47.351Z,9.48
2022-12-25T13:37:50.226Z,8.50
2022-12-25T13:38:57.154Z,6.93
2022-12-25T13:40:01.462Z,7.57
2022-12-25T13:41:22.114Z,6.05
2022-12-25T13:42:28.506Z,7.82
2022-12-25T13:43:32.405Z,7.78
2022-12-25T13:44:44.711Z,8.02
2022-12-25T13:45:55.056Z,8.90
2022-12-25T13:47:08.756Z,8.95
2022-12-25T13:48:15.881Z,4.70
2022-12-25T13:49:21.839Z,7.60
2022-12-25T13:50:26.890Z,8.43
2022-12-25T13:51:30.604Z,6.90
2022-12-25T13:52:35.116Z,9.43
2022-12-25T13:53:38.685Z,6.95
2022-12-25T13:54:51.260Z,8.93
2022-12-25T13:55:57.600Z,8.10
2022-12-25T13:56:59.886Z,10.43
2022-12-25T13:58:05.893Z,6.68
2022-12-25T13:59:16.595Z,6.82
2022-12-25T14:00:22.583Z,9.50
2022-12-25T14:01:25.063Z,12.02
2022-12-25T14:02:33.415Z,8.38
2022-12-25T14:03:41.973Z,7.57
2022-12-25T14:04:45.283Z,6.28
2022-12-25T14:05:57.535Z,8.80
2022-12-25T14:07:10.011Z,7.10
2022-12-25T14:08:18.521Z,7.00
2022-12-25T14:09:21.749Z,8.23
2022-12-25T14:10:27.582Z,9.13
2022-12-25T14:11:31.423Z,9.13
2022-12-25T14:12:35.581Z,12.98
2022-12-25T14:13:41.509Z,7.47
2022-12-25T14:14:46.328Z,11.48
2022-12-25T14:15:50.438Z,6.70
2022-12-25T14:16:57.554Z,9.52
2022-12-25T14:18:00.306Z,10.23
2022-12-25T14:19:04.762Z,8.50
2022-12-25T14:20:08.897Z,7.30
2022-12-25T14:21:17.377Z,10.75
2022-12-25T14:22:22.818Z,6.10
2022-12-25T14:23:27.123Z,9.23
2022-12-25T14:24:31.507Z,7.18
2022-12-25T14:25:42.291Z,7.97
2022-12-25T14:26:45.166Z,7.13
2022-12-25T14:27:51.626Z,9.57
2022-12-25T14:29:01.746Z,9.55
2022-12-25T14:30:14.461Z,10.77
2022-12-25T14:31:17.171Z,7.93
2022-12-25T14:32:24.070Z,7.03
2022-12-25T14:33:27.853Z,8.63
2022-12-25T14:34:32.240Z,10.07
2022-12-25T14:35:35.731Z,9.27
2022-12-25T14:36:39.413Z,7.78
2022-12-25T14:37:42.982Z,10.88
2022-12-25T14:38:56.593Z,7.93
2022-12-25T14:40:00.838Z,9.25
2022-12-25T14:41:07.656Z,6.90
2022-12-25T14:42:21.342Z,8.55
2022-12-25T14:43:26.815Z,9.93
2022-12-25T14:44:34.850Z,9.57
2022-12-25T14:45:40.003Z,9.38
2022-12-25T14:46:42.619Z,8.55
2022-12-25T14:47:53.017Z,9.43
2022-12-25T14:49:02.601Z,9.55
2022-12-25T14:50:15.893Z,8.00
2022-12-25T14:51:19.568Z,9.15
2022-12-25T14:52:25.191Z,10.57
2022-12-25T14:53:36.955Z,12.57
2022-12-25T14:54:40.314Z,11.43
2022-12-25T14:55:49.537Z,9.53
2022-12-25T14:56:56.272Z,11.63
2022-12-25T14:58:04.613Z,10.85
2022-12-25T14:59:09.713Z,16.38